Cumby, Texas
Current Conditions -  °F | °C
As of 12:15 AM on Monday 22 Dec 2014 (Local Time) from KSLR Reporting Station
Overcast Overcast  
Wind Chill: 51°   Ceiling: 1200
Heat Index: 51°   Visibility: 10mi
Dew Point: 48°   Wind: 13mph
Humidity: 88%   Direction: 160°SSE
Pressure: 29.78"   Gusts: 16mph
Location:  33.14°N, 95.84°W
Report Text: KSLR 220615Z AUTO 16011G14KT 10SM BKN012 BKN019 OVC033 11/09 A2978 RMK AO2 T01060087
Loading
Personal Weather Stations






























Interactive Weather Map New forecast layout! Learn more

10-Day Weather Forecast

Advertisements
Track Severe Weather on mobile